Time;durP1;ratioP1;P1;durP2;ratioP2;P2;SDS_P1;SDS_P2;PMS_P1;PMS_P2;Temp;Humidity;BMP_temperature;BMP_pressure;BME280_temperature;BME280_humidity;BME280_pressure;Samples;Min_cycle;Max_cycle;Signal;HPM_P1;HPM_P2
2023/03/11 00:02:57;;;;;;;3.50;3.25;;;;;;;;;;6255177;28;20028;-72
2023/03/11 00:06:00;;;;;;;2.20;2.10;;;;;;;;;;6254145;28;20025;-73
2023/03/11 00:09:00;;;;;;;0.73;0.73;;;;;;;;;;6249644;28;20028;-72
2023/03/11 00:12:01;;;;;;;1.20;0.97;;;;;;;;;;6269910;28;20024;-73
2023/03/11 00:15:01;;;;;;;8.97;2.70;;;;;;;;;;6264858;28;20025;-72
2023/03/11 00:18:01;;;;;;;2.20;2.10;;;;;;;;;;6264351;28;20028;-72
2023/03/11 00:21:02;;;;;;;3.77;3.47;;;;;;;;;;6259601;28;20021;-72
2023/03/11 00:24:02;;;;;;;2.40;2.20;;;;;;;;;;6261076;28;20475;-73
2023/03/11 00:27:03;;;;;;;13.67;3.23;;;;;;;;;;6266584;28;20028;-73
2023/03/11 00:30:03;;;;;;;4.20;2.87;;;;;;;;;;6256049;28;20487;-73
2023/03/11 00:33:04;;;;;;;1.17;1.17;;;;;;;;;;6252415;28;20372;-73
2023/03/11 00:36:05;;;;;;;1.30;1.17;;;;;;;;;;6263997;28;20237;-72
2023/03/11 00:39:05;;;;;;;2.30;2.13;;;;;;;;;;6250709;28;20049;-73
2023/03/11 00:42:06;;;;;;;1.45;1.35;;;;;;;;;;6248132;28;20049;-73
2023/03/11 00:45:07;;;;;;;2.90;2.73;;;;;;;;;;6247556;28;20025;-73
2023/03/11 00:48:07;;;;;;;1.17;1.17;;;;;;;;;;6252788;28;20148;-72
2023/03/11 00:51:12;;;;;;;2.47;2.37;;;;;;;;;;6266655;28;20031;-73
2023/03/11 00:54:12;;;;;;;2.40;2.20;;;;;;;;;;6260456;28;20017;-73
2023/03/11 00:57:12;;;;;;;0.95;0.95;;;;;;;;;;6261351;28;20071;-73
2023/03/11 01:00:13;;;;;;;1.33;1.23;;;;;;;;;;6265655;28;20029;-73
2023/03/11 01:03:13;;;;;;;0.73;0.73;;;;;;;;;;6251741;28;20038;-73
2023/03/11 01:06:14;;;;;;;2.03;1.90;;;;;;;;;;6259192;28;20038;-72
2023/03/11 01:09:14;;;;;;;1.03;1.03;;;;;;;;;;6264912;28;20490;-72
2023/03/11 01:12:14;;;;;;;3.13;2.87;;;;;;;;;;6253344;28;20475;-72
2023/03/11 01:15:26;;;;;;;1.37;1.37;;;;;;;;;;6248781;28;20010;-72
2023/03/11 01:18:26;;;;;;;1.95;1.83;;;;;;;;;;6245083;28;20021;-72
2023/03/11 01:21:26;;;;;;;2.97;2.37;;;;;;;;;;6258364;28;20029;-72
2023/03/11 01:24:27;;;;;;;0.40;0.40;;;;;;;;;;6261909;28;20476;-72
2023/03/11 01:27:27;;;;;;;1.57;1.57;;;;;;;;;;6270383;28;20025;-72
2023/03/11 01:30:28;;;;;;;0.83;0.83;;;;;;;;;;6252414;28;20399;-72
2023/03/11 01:33:28;;;;;;;0.10;0.10;;;;;;;;;;6249945;28;20022;-72
2023/03/11 01:36:28;;;;;;;4.23;1.90;;;;;;;;;;6252996;28;20070;-72
2023/03/11 01:39:28;;;;;;;0.25;0.25;;;;;;;;;;6251341;28;20015;-73
2023/03/11 01:42:28;;;;;;;0.40;0.40;;;;;;;;;;6261511;28;20396;-72
2023/03/11 01:45:29;;;;;;;0.53;0.53;;;;;;;;;;6265377;28;20071;-72
2023/03/11 01:48:29;;;;;;;0.20;0.20;;;;;;;;;;6259680;28;20025;-72
2023/03/11 01:51:34;;;;;;;0.50;0.50;;;;;;;;;;6256323;28;20078;-73
2023/03/11 01:54:37;;;;;;;0.73;0.73;;;;;;;;;;6260653;28;20096;-73
2023/03/11 01:57:39;;;;;;;0.45;0.45;;;;;;;;;;6259357;28;20049;-73
2023/03/11 02:00:39;;;;;;;;;;;;;;;;;;6254986;28;20112;-71
2023/03/11 02:03:40;;;;;;;0.20;0.20;;;;;;;;;;6263737;28;19904;-71
2023/03/11 02:06:40;;;;;;;0.10;0.10;;;;;;;;;;6258775;28;20031;-72
2023/03/11 02:09:41;;;;;;;0.50;0.50;;;;;;;;;;6254110;28;20028;-72
2023/03/11 02:12:41;;;;;;;0.50;0.50;;;;;;;;;;6268854;28;20028;-71
2023/03/11 02:15:41;;;;;;;0.10;0.10;;;;;;;;;;6258424;28;20087;-71
2023/03/11 02:18:42;;;;;;;0.70;0.67;;;;;;;;;;6258574;28;20490;-71
2023/03/11 02:21:42;;;;;;;0.23;0.23;;;;;;;;;;6257349;28;20021;-71
2023/03/11 02:24:45;;;;;;;0.93;0.93;;;;;;;;;;6250685;28;20533;-73
2023/03/11 02:27:47;;;;;;;0.38;0.38;;;;;;;;;;6259987;28;20025;-72
2023/03/11 02:30:49;;;;;;;0.10;0.10;;;;;;;;;;6249929;28;20419;-72
2023/03/11 02:33:50;;;;;;;0.75;0.75;;;;;;;;;;6254370;28;20017;-72
2023/03/11 02:36:50;;;;;;;0.25;0.25;;;;;;;;;;6254310;28;20017;-71
2023/03/11 02:39:52;;;;;;;0.40;0.40;;;;;;;;;;6254121;28;20053;-72
2023/03/11 02:42:54;;;;;;;0.10;0.10;;;;;;;;;;6269533;28;20064;-72
2023/03/11 02:45:54;;;;;;;;;;;;;;;;;;6265442;28;20104;-73
2023/03/11 02:48:54;;;;;;;1.17;0.93;;;;;;;;;;6255312;28;19909;-73
2023/03/11 02:51:55;;;;;;;0.20;0.20;;;;;;;;;;6259346;28;20387;-72
2023/03/11 02:54:55;;;;;;;0.30;0.30;;;;;;;;;;6243883;28;20364;-71
2023/03/11 02:57:55;;;;;;;0.20;0.20;;;;;;;;;;6235901;28;20025;-71
2023/03/11 03:00:55;;;;;;;0.10;0.10;;;;;;;;;;6258968;28;20063;-71
2023/03/11 03:03:56;;;;;;;0.22;0.22;;;;;;;;;;6266557;28;20022;-73
2023/03/11 03:06:56;;;;;;;0.20;0.20;;;;;;;;;;6270399;28;20032;-72
2023/03/11 03:09:56;;;;;;;0.20;0.20;;;;;;;;;;6276302;28;20497;-73
2023/03/11 03:12:56;;;;;;;0.52;0.52;;;;;;;;;;6263635;28;20033;-73
2023/03/11 03:15:57;;;;;;;1.13;1.08;;;;;;;;;;6255357;28;20013;-73
2023/03/11 03:18:57;;;;;;;0.37;0.37;;;;;;;;;;6241720;28;20048;-73
2023/03/11 03:21:57;;;;;;;1.98;1.75;;;;;;;;;;6269418;28;20013;-73
2023/03/11 03:24:57;;;;;;;0.70;0.70;;;;;;;;;;6269556;28;20092;-72
2023/03/11 03:27:57;;;;;;;0.20;0.20;;;;;;;;;;6277236;28;20021;-73
2023/03/11 03:31:05;;;;;;;0.20;0.20;;;;;;;;;;6276739;28;20060;-72
2023/03/11 03:34:05;;;;;;;0.68;0.68;;;;;;;;;;6276527;28;20013;-73
2023/03/11 03:37:05;;;;;;;0.20;0.20;;;;;;;;;;6254922;28;20024;-72
2023/03/11 03:40:06;;;;;;;1.60;0.97;;;;;;;;;;6235963;28;20040;-72
2023/03/11 03:43:07;;;;;;;0.15;0.15;;;;;;;;;;6252444;28;20499;-73
2023/03/11 03:46:07;;;;;;;0.28;0.28;;;;;;;;;;6264425;28;20028;-73
2023/03/11 03:49:07;;;;;;;0.45;0.45;;;;;;;;;;6259255;28;20026;-73
2023/03/11 03:52:09;;;;;;;0.87;0.87;;;;;;;;;;6273518;28;20103;-73
2023/03/11 03:55:09;;;;;;;0.40;0.40;;;;;;;;;;6270232;28;20029;-73
2023/03/11 03:58:09;;;;;;;0.20;0.20;;;;;;;;;;6260695;28;20021;-73
2023/03/11 04:01:10;;;;;;;1.13;0.83;;;;;;;;;;6266884;28;20034;-73
2023/03/11 04:04:10;;;;;;;1.23;1.17;;;;;;;;;;6272338;28;20021;-71
2023/03/11 04:07:10;;;;;;;0.20;0.20;;;;;;;;;;6262060;28;20021;-71
2023/03/11 04:10:12;;;;;;;0.20;0.20;;;;;;;;;;6256733;28;20249;-72
2023/03/11 04:13:12;;;;;;;1.23;1.15;;;;;;;;;;6260945;28;20055;-71
2023/03/11 04:16:17;;;;;;;0.17;0.17;;;;;;;;;;6233482;28;20491;-72
2023/03/11 04:19:17;;;;;;;0.30;0.30;;;;;;;;;;6259011;28;20646;-72
2023/03/11 04:22:17;;;;;;;3.13;1.30;;;;;;;;;;6264096;28;20107;-72
2023/03/11 04:25:18;;;;;;;0.53;0.53;;;;;;;;;;6263457;28;20035;-72
2023/03/11 04:28:19;;;;;;;0.68;0.68;;;;;;;;;;6262658;28;20391;-72
2023/03/11 04:31:19;;;;;;;6.67;2.07;;;;;;;;;;6266853;28;20116;-72
2023/03/11 04:34:19;;;;;;;0.20;0.20;;;;;;;;;;6262012;28;20119;-73
2023/03/11 04:37:19;;;;;;;6.10;1.60;;;;;;;;;;6252438;28;20056;-73
2023/03/11 04:40:19;;;;;;;0.22;0.22;;;;;;;;;;6250039;28;20057;-72
2023/03/11 04:43:20;;;;;;;6.10;2.30;;;;;;;;;;6261719;28;20528;-72
2023/03/11 04:46:20;;;;;;;0.25;0.25;;;;;;;;;;6259975;28;20056;-73
2023/03/11 04:49:20;;;;;;;0.20;0.20;;;;;;;;;;6256677;28;20475;-73
2023/03/11 04:52:20;;;;;;;0.20;0.20;;;;;;;;;;6259740;28;20103;-73
2023/03/11 04:55:21;;;;;;;1.97;1.07;;;;;;;;;;6260759;28;20479;-73
2023/03/11 04:58:21;;;;;;;0.40;0.40;;;;;;;;;;6261335;28;20029;-73
2023/03/11 05:01:21;;;;;;;0.47;0.47;;;;;;;;;;6247977;28;20531;-73
2023/03/11 05:04:21;;;;;;;0.97;0.87;;;;;;;;;;6229293;28;20026;-73
2023/03/11 05:07:23;;;;;;;0.60;0.60;;;;;;;;;;6253020;28;20083;-74
2023/03/11 05:10:23;;;;;;;0.30;0.30;;;;;;;;;;6253789;28;20017;-74
2023/03/11 05:13:23;;;;;;;0.30;0.30;;;;;;;;;;6257597;28;20060;-73
2023/03/11 05:16:23;;;;;;;0.50;0.50;;;;;;;;;;6260848;28;20104;-73
2023/03/11 05:19:30;;;;;;;0.73;0.73;;;;;;;;;;6248714;28;20432;-73
2023/03/11 05:22:30;;;;;;;1.05;1.05;;;;;;;;;;6266685;28;20047;-73
2023/03/11 05:25:30;;;;;;;0.20;0.20;;;;;;;;;;6251742;28;20021;-73
2023/03/11 05:28:30;;;;;;;0.82;0.82;;;;;;;;;;6256275;28;20021;-73
2023/03/11 05:31:31;;;;;;;0.65;0.65;;;;;;;;;;6263854;28;20470;-73
2023/03/11 05:34:31;;;;;;;0.20;0.20;;;;;;;;;;6262384;28;20017;-73
2023/03/11 05:37:31;;;;;;;0.60;0.60;;;;;;;;;;6265497;28;20467;-73
2023/03/11 05:40:33;;;;;;;0.20;0.20;;;;;;;;;;6264185;28;20052;-74
2023/03/11 05:43:33;;;;;;;;;;;;;;;;;;6264053;28;20517;-74
2023/03/11 05:46:33;;;;;;;0.20;0.20;;;;;;;;;;6249347;28;19956;-74
2023/03/11 05:49:34;;;;;;;0.20;0.20;;;;;;;;;;6254077;28;20027;-74
2023/03/11 05:52:34;;;;;;;1.13;1.03;;;;;;;;;;6251624;28;20019;-74
2023/03/11 05:55:34;;;;;;;0.43;0.43;;;;;;;;;;6247285;28;20018;-74
2023/03/11 05:58:34;;;;;;;2.08;1.90;;;;;;;;;;6259048;28;20020;-74
2023/03/11 06:01:35;;;;;;;2.23;2.13;;;;;;;;;;6259530;28;20032;-74
2023/03/11 06:04:35;;;;;;;1.23;0.60;;;;;;;;;;6258766;28;20013;-74
2023/03/11 06:07:36;;;;;;;0.40;0.40;;;;;;;;;;6253704;28;20013;-74
2023/03/11 06:10:36;;;;;;;0.20;0.20;;;;;;;;;;6249963;28;20485;-75
2023/03/11 06:13:36;;;;;;;0.30;0.30;;;;;;;;;;6259632;28;20147;-74
2023/03/11 06:16:37;;;;;;;0.30;0.30;;;;;;;;;;6256768;28;20254;-74
2023/03/11 06:19:37;;;;;;;0.30;0.30;;;;;;;;;;6254359;28;20013;-74
2023/03/11 06:22:37;;;;;;;0.20;0.20;;;;;;;;;;6259478;28;20032;-74
2023/03/11 06:25:37;;;;;;;1.20;0.60;;;;;;;;;;6247467;28;20471;-74
2023/03/11 06:28:37;;;;;;;0.20;0.20;;;;;;;;;;6264352;28;20104;-74
2023/03/11 06:31:38;;;;;;;0.20;0.20;;;;;;;;;;6261355;28;20021;-75
2023/03/11 06:34:39;;;;;;;0.93;0.93;;;;;;;;;;6260370;28;20498;-74
2023/03/11 06:37:39;;;;;;;0.20;0.20;;;;;;;;;;6261153;28;20255;-74
2023/03/11 06:40:39;;;;;;;1.70;1.60;;;;;;;;;;6229759;28;20021;-74
2023/03/11 06:43:39;;;;;;;0.20;0.20;;;;;;;;;;6260263;28;20065;-74
2023/03/11 06:46:40;;;;;;;1.80;1.70;;;;;;;;;;6266261;28;20013;-75
2023/03/11 06:49:41;;;;;;;1.27;1.27;;;;;;;;;;6260749;28;20021;-75
2023/03/11 06:52:41;;;;;;;0.25;0.25;;;;;;;;;;6247636;28;20041;-75
2023/03/11 06:55:42;;;;;;;0.20;0.20;;;;;;;;;;6262199;28;20031;-75
2023/03/11 06:58:42;;;;;;;0.43;0.43;;;;;;;;;;6256916;28;20020;-75
2023/03/11 07:01:42;;;;;;;0.53;0.53;;;;;;;;;;6257265;28;20070;-75
2023/03/11 07:04:42;;;;;;;0.68;0.68;;;;;;;;;;6261702;28;20467;-75
2023/03/11 07:07:43;;;;;;;2.50;1.33;;;;;;;;;;6255903;28;20025;-75
2023/03/11 07:10:43;;;;;;;0.20;0.20;;;;;;;;;;6255464;28;20017;-75
2023/03/11 07:13:43;;;;;;;0.30;0.30;;;;;;;;;;6258545;28;20022;-75
2023/03/11 07:16:44;;;;;;;1.93;1.60;;;;;;;;;;6257143;28;20068;-75
2023/03/11 07:19:45;;;;;;;3.30;3.00;;;;;;;;;;6237427;28;20017;-75
2023/03/11 07:22:45;;;;;;;0.77;0.77;;;;;;;;;;6252728;28;20100;-75
2023/03/11 07:25:46;;;;;;;1.17;1.17;;;;;;;;;;6259429;28;20025;-75
2023/03/11 07:28:48;;;;;;;0.23;0.23;;;;;;;;;;6254929;28;20415;-75
2023/03/11 07:31:48;;;;;;;1.55;1.48;;;;;;;;;;6254210;28;20483;-76
2023/03/11 07:34:49;;;;;;;0.40;0.40;;;;;;;;;;6255669;28;20023;-76
2023/03/11 07:37:49;;;;;;;2.13;1.93;;;;;;;;;;6257655;28;20482;-75
2023/03/11 07:40:56;;;;;;;1.77;1.67;;;;;;;;;;6263658;28;20028;-75
2023/03/11 07:43:58;;;;;;;0.98;0.75;;;;;;;;;;6264344;28;20562;-75
2023/03/11 07:47:00;;;;;;;0.85;0.85;;;;;;;;;;6258027;28;20014;-76
2023/03/11 07:50:00;;;;;;;1.55;1.45;;;;;;;;;;6268071;28;20459;-75
2023/03/11 07:53:01;;;;;;;4.27;3.03;;;;;;;;;;6269903;28;20010;-75
2023/03/11 07:56:01;;;;;;;1.33;1.33;;;;;;;;;;6257586;28;20021;-75
2023/03/11 07:59:03;;;;;;;0.93;0.93;;;;;;;;;;6259159;28;20036;-76
2023/03/11 08:02:03;;;;;;;0.35;0.35;;;;;;;;;;6259883;28;20491;-76
2023/03/11 08:05:04;;;;;;;0.27;0.27;;;;;;;;;;6241427;28;20101;-76
2023/03/11 08:08:04;;;;;;;0.20;0.20;;;;;;;;;;6264622;28;20100;-76
2023/03/11 08:11:05;;;;;;;2.00;1.90;;;;;;;;;;6243974;28;20022;-76
2023/03/11 08:14:05;;;;;;;0.40;0.40;;;;;;;;;;6254862;28;20074;-76
2023/03/11 08:17:05;;;;;;;6.90;2.40;;;;;;;;;;6270851;28;20248;-77
2023/03/11 08:20:07;;;;;;;0.30;0.30;;;;;;;;;;6263765;28;20009;-77
2023/03/11 08:23:07;;;;;;;;;;;;;;;;;;6266279;28;20016;-77
2023/03/11 08:26:12;;;;;;;2.15;2.05;;;;;;;;;;6245169;28;19909;-77
2023/03/11 08:29:12;;;;;;;2.30;2.15;;;;;;;;;;6279645;28;20013;-89
2023/03/11 08:32:12;;;;;;;1.10;1.10;;;;;;;;;;6253038;28;20021;-84
2023/03/11 08:35:12;;;;;;;0.30;0.30;;;;;;;;;;6275480;28;20470;-86
2023/03/11 08:38:13;;;;;;;0.83;0.83;;;;;;;;;;6241442;28;20025;-85
2023/03/11 08:41:13;;;;;;;2.90;2.57;;;;;;;;;;6270747;28;20025;-90
2023/03/11 08:44:13;;;;;;;0.80;0.80;;;;;;;;;;6268538;28;20158;-88
2023/03/11 08:47:14;;;;;;;0.63;0.63;;;;;;;;;;6264588;28;20028;-88
2023/03/11 08:50:17;;;;;;;1.98;1.83;;;;;;;;;;6270829;28;20078;-86
2023/03/11 08:53:18;;;;;;;0.73;0.73;;;;;;;;;;6267342;28;20047;-88
2023/03/11 08:56:18;;;;;;;2.03;1.90;;;;;;;;;;6250074;28;20112;-89
2023/03/11 08:59:18;;;;;;;1.13;1.13;;;;;;;;;;6262449;28;20021;-87
2023/03/11 09:02:19;;;;;;;2.27;2.17;;;;;;;;;;6236384;28;20047;-89
2023/03/11 09:05:20;;;;;;;1.70;1.60;;;;;;;;;;6264057;28;20522;-87
2023/03/11 09:08:20;;;;;;;0.30;0.30;;;;;;;;;;6270862;28;20013;-86
2023/03/11 09:11:21;;;;;;;0.20;0.20;;;;;;;;;;6236287;28;20044;-84
2023/03/11 09:14:22;;;;;;;0.50;0.50;;;;;;;;;;6265046;28;20013;-85
2023/03/11 09:17:22;;;;;;;1.73;1.63;;;;;;;;;;6269221;28;20021;-87
2023/03/11 09:20:22;;;;;;;0.87;0.77;;;;;;;;;;6280132;28;20041;-85
2023/03/11 09:23:24;;;;;;;0.50;0.50;;;;;;;;;;6231864;28;20498;-85
2023/03/11 09:26:24;;;;;;;;;;;;;;;;;;6269033;28;20024;-87
2023/03/11 09:29:24;;;;;;;1.83;1.75;;;;;;;;;;6249161;28;19909;-87
2023/03/11 09:32:24;;;;;;;1.50;1.40;;;;;;;;;;6250056;28;20539;-91
2023/03/11 09:35:26;;;;;;;0.77;0.77;;;;;;;;;;6261712;28;20017;-91
2023/03/11 09:38:26;;;;;;;0.20;0.20;;;;;;;;;;6263324;28;20052;-90
2023/03/11 09:41:32;;;;;;;1.48;1.40;;;;;;;;;;6243989;28;20013;-89
2023/03/11 09:44:36;;;;;;;2.80;1.35;;;;;;;;;;6254959;28;20522;-87
2023/03/11 09:47:45;;;;;;;0.68;0.68;;;;;;;;;;6262396;28;20036;-91
2023/03/11 09:51:07;;;;;;;1.65;0.93;;;;;;;;;;6289602;28;20036;-89
2023/03/11 09:54:12;;;;;;;2.30;2.15;;;;;;;;;;6280779;28;20371;-91
2023/03/11 09:57:21;;;;;;;1.63;1.58;;;;;;;;;;6271370;28;20025;-87
2023/03/11 10:13:11;;;;;;;0.73;0.73;;;;;;;;;;6250783;28;20046;-87
2023/03/11 10:16:23;;;;;;;1.02;1.02;;;;;;;;;;6240380;28;20075;-87
2023/03/11 10:19:44;;;;;;;1.13;1.13;;;;;;;;;;6232162;28;20075;-87
2023/03/11 10:23:02;;;;;;;1.02;1.02;;;;;;;;;;6201460;28;20025;-85
2023/03/11 10:26:09;;;;;;;0.90;0.88;;;;;;;;;;6223976;28;20014;-84
2023/03/11 10:29:14;;;;;;;1.73;1.67;;;;;;;;;;6249159;28;20036;-84
2023/03/11 10:32:18;;;;;;;2.28;2.10;;;;;;;;;;6255082;28;20048;-84
2023/03/11 10:35:25;;;;;;;0.95;0.95;;;;;;;;;;6266340;28;20014;-85
2023/03/11 10:38:27;;;;;;;1.02;1.00;;;;;;;;;;6261748;28;20040;-85
2023/03/11 10:41:30;;;;;;;1.60;1.50;;;;;;;;;;6264373;28;20061;-85
2023/03/11 10:44:32;;;;;;;0.35;0.35;;;;;;;;;;6410139;22;20040;-86
2023/03/11 10:50:44;;;;;;;1.45;1.45;;;;;;;;;;6260408;28;20053;-87
2023/03/11 10:53:55;;;;;;;0.52;0.52;;;;;;;;;;6265207;28;20028;-86
2023/03/11 10:56:56;;;;;;;5.47;2.78;;;;;;;;;;6252253;28;20026;-86
2023/03/11 10:59:57;;;;;;;;;;;;;;;;;;6239051;28;20395;-86
2023/03/11 11:03:00;;;;;;;0.85;0.85;;;;;;;;;;6245665;28;20406;-84
2023/03/11 11:06:05;;;;;;;2.13;1.63;;;;;;;;;;6250648;28;20017;-86
2023/03/11 11:09:15;;;;;;;1.08;1.08;;;;;;;;;;6231563;28;20018;-85
2023/03/11 11:12:19;;;;;;;1.25;1.25;;;;;;;;;;6220996;28;20026;-84
2023/03/11 11:15:21;;;;;;;2.50;2.30;;;;;;;;;;6234242;28;20026;-84
2023/03/11 11:18:21;;;;;;;;;;;;;;;;;;6232948;28;20018;-83
2023/03/11 11:21:32;;;;;;;0.30;0.30;;;;;;;;;;6231941;28;19932;-83
2023/03/11 11:24:33;;;;;;;0.85;0.85;;;;;;;;;;6224604;28;20018;-84
2023/03/11 11:27:33;;;;;;;0.27;0.27;;;;;;;;;;6244044;28;20069;-84
2023/03/11 11:30:33;;;;;;;0.30;0.30;;;;;;;;;;6252505;28;20014;-83
2023/03/11 11:33:47;;;;;;;2.17;1.53;;;;;;;;;;6253147;28;20014;-84
2023/03/11 11:43:04;;;;;;;2.25;2.08;;;;;;;;;;6249051;28;20042;-83
2023/03/11 11:46:09;;;;;;;0.38;0.38;;;;;;;;;;6238736;28;20045;-83
2023/03/11 11:49:18;;;;;;;1.40;1.30;;;;;;;;;;6232700;28;20472;-82
2023/03/11 11:52:20;;;;;;;0.52;0.52;;;;;;;;;;6232652;28;20053;-82
2023/03/11 11:55:25;;;;;;;0.30;0.30;;;;;;;;;;6233989;28;20038;-83
2023/03/11 11:58:25;;;;;;;0.20;0.20;;;;;;;;;;6226053;28;20029;-84
2023/03/11 12:01:52;;;;;;;0.20;0.20;;;;;;;;;;6242552;28;20030;-83
2023/03/11 12:04:59;;;;;;;0.20;0.20;;;;;;;;;;6235261;28;20069;-82
2023/03/11 12:11:20;;;;;;;0.45;0.45;;;;;;;;;;7587561;22;20015;-82
2023/03/11 12:14:23;;;;;;;0.55;0.55;;;;;;;;;;6249338;28;20548;-82
2023/03/11 12:17:24;;;;;;;1.50;1.40;;;;;;;;;;6247419;28;20028;-81
2023/03/11 12:20:29;;;;;;;0.53;0.53;;;;;;;;;;6241279;28;20104;-81
2023/03/11 12:23:36;;;;;;;1.17;1.17;;;;;;;;;;6242819;28;20034;-81
2023/03/11 12:26:40;;;;;;;0.57;0.57;;;;;;;;;;6231282;28;20025;-82
2023/03/11 12:29:43;;;;;;;12.52;2.00;;;;;;;;;;6227413;28;20036;-83
2023/03/11 12:32:48;;;;;;;0.30;0.30;;;;;;;;;;6246843;28;20084;-82
2023/03/11 12:35:54;;;;;;;1.45;1.10;;;;;;;;;;6228413;28;20494;-82
2023/03/11 12:38:54;;;;;;;0.20;0.20;;;;;;;;;;6246935;28;20067;-81
2023/03/11 12:42:27;;;;;;;0.30;0.30;;;;;;;;;;6248301;28;20025;-82
2023/03/11 12:45:47;;;;;;;0.80;0.80;;;;;;;;;;6215579;28;20038;-81
2023/03/11 12:49:23;;;;;;;1.50;1.42;;;;;;;;;;6224934;28;20032;-82
2023/03/11 12:52:25;;;;;;;2.28;2.15;;;;;;;;;;6168375;28;20078;-82
2023/03/11 12:55:30;;;;;;;0.43;0.43;;;;;;;;;;6223127;28;20028;-83
2023/03/11 12:58:46;;;;;;;3.25;1.77;;;;;;;;;;6237368;28;20028;-82
2023/03/11 13:01:52;;;;;;;2.00;1.90;;;;;;;;;;6236396;28;20025;-81
2023/03/11 13:05:06;;;;;;;4.80;2.00;;;;;;;;;;6210906;28;20129;-82
2023/03/11 13:08:12;;;;;;;2.25;2.15;;;;;;;;;;6236507;28;20029;-82
2023/03/11 13:11:28;;;;;;;0.45;0.45;;;;;;;;;;6239725;28;20078;-82
2023/03/11 13:14:32;;;;;;;0.50;0.50;;;;;;;;;;6239534;28;20383;-82
2023/03/11 13:17:32;;;;;;;1.00;1.00;;;;;;;;;;6252274;28;20029;-83
2023/03/11 13:20:41;;;;;;;0.33;0.33;;;;;;;;;;6235467;28;20021;-83
2023/03/11 13:23:42;;;;;;;0.40;0.40;;;;;;;;;;6222469;28;20448;-82
2023/03/11 13:26:46;;;;;;;0.80;0.80;;;;;;;;;;6231140;28;20040;-82
2023/03/11 13:29:51;;;;;;;0.82;0.82;;;;;;;;;;6231712;28;20030;-83
2023/03/11 13:33:14;;;;;;;0.20;0.20;;;;;;;;;;6243004;28;20018;-82
2023/03/11 13:36:23;;;;;;;0.20;0.20;;;;;;;;;;6233664;28;20029;-82
2023/03/11 13:39:30;;;;;;;1.13;1.10;;;;;;;;;;6229467;28;20029;-82
2023/03/11 13:42:34;;;;;;;0.20;0.20;;;;;;;;;;6235289;28;20017;-83
2023/03/11 13:45:35;;;;;;;0.45;0.45;;;;;;;;;;6232926;28;20033;-82
2023/03/11 13:48:41;;;;;;;1.10;1.10;;;;;;;;;;6230147;28;20052;-83
2023/03/11 13:51:46;;;;;;;5.45;3.95;;;;;;;;;;6244447;28;20379;-82
2023/03/11 13:55:06;;;;;;;0.30;0.30;;;;;;;;;;6233550;28;20361;-83
2023/03/11 13:58:13;;;;;;;1.25;1.23;;;;;;;;;;6228129;28;20037;-84
2023/03/11 14:01:15;;;;;;;1.67;1.58;;;;;;;;;;6247808;28;20450;-84
2023/03/11 14:04:19;;;;;;;1.27;1.25;;;;;;;;;;6246228;28;20029;-84
2023/03/11 14:07:30;;;;;;;0.75;0.75;;;;;;;;;;6223360;28;20034;-83
2023/03/11 14:10:30;;;;;;;0.20;0.20;;;;;;;;;;6217522;28;20639;-83
2023/03/11 14:13:41;;;;;;;0.23;0.23;;;;;;;;;;6238158;28;20041;-82
2023/03/11 14:16:42;;;;;;;4.72;1.50;;;;;;;;;;6230351;28;20022;-79
2023/03/11 14:20:00;;;;;;;1.15;1.13;;;;;;;;;;6232778;28;20466;-80
2023/03/11 14:23:00;;;;;;;1.88;1.77;;;;;;;;;;6242211;28;20433;-81
2023/03/11 14:26:03;;;;;;;2.03;1.93;;;;;;;;;;6240354;28;20018;-81
2023/03/11 14:29:07;;;;;;;0.75;0.75;;;;;;;;;;6236066;28;20539;-81
2023/03/11 14:32:15;;;;;;;0.73;0.73;;;;;;;;;;6242266;28;20021;-81
2023/03/11 14:35:19;;;;;;;0.73;0.73;;;;;;;;;;6240031;28;20034;-79
2023/03/11 14:38:24;;;;;;;0.63;0.63;;;;;;;;;;6248383;28;20053;-80
2023/03/11 14:41:24;;;;;;;0.43;0.43;;;;;;;;;;6231402;28;20025;-80
2023/03/11 14:44:26;;;;;;;0.77;0.77;;;;;;;;;;6235709;28;20032;-80
2023/03/11 14:47:32;;;;;;;2.15;1.60;;;;;;;;;;6241416;28;20075;-80
2023/03/11 14:50:36;;;;;;;3.13;2.92;;;;;;;;;;6232705;28;20419;-80
2023/03/11 14:53:52;;;;;;;4.68;3.40;;;;;;;;;;6236831;28;20601;-78
2023/03/11 14:57:02;;;;;;;0.40;0.40;;;;;;;;;;6214033;28;20017;-80
2023/03/11 15:00:06;;;;;;;0.40;0.40;;;;;;;;;;6236115;28;20675;-78
2023/03/11 15:03:24;;;;;;;1.85;1.75;;;;;;;;;;6242996;28;20026;-79
2023/03/11 15:06:26;;;;;;;0.20;0.20;;;;;;;;;;6260124;28;20017;-79
2023/03/11 15:09:27;;;;;;;1.00;1.00;;;;;;;;;;6246047;28;20026;-79
2023/03/11 15:12:54;;;;;;;0.67;0.67;;;;;;;;;;6249053;28;20064;-79
2023/03/11 15:15:55;;;;;;;0.20;0.20;;;;;;;;;;6218053;28;20049;-79
2023/03/11 15:18:56;;;;;;;;;;;;;;;;;;6253720;28;20032;-79
2023/03/11 15:21:58;;;;;;;0.30;0.30;;;;;;;;;;6255960;28;19913;-79
2023/03/11 15:24:59;;;;;;;2.97;2.75;;;;;;;;;;6254793;28;20024;-79
2023/03/11 15:28:20;;;;;;;1.85;1.75;;;;;;;;;;6234458;28;20022;-78
2023/03/11 15:31:20;;;;;;;1.98;1.88;;;;;;;;;;6233837;28;20026;-78
2023/03/11 15:34:23;;;;;;;2.08;1.20;;;;;;;;;;6236563;28;20014;-78
2023/03/11 15:37:25;;;;;;;1.92;1.75;;;;;;;;;;6246680;28;20100;-76
2023/03/11 15:40:26;;;;;;;0.30;0.30;;;;;;;;;;6255876;28;20067;-77
2023/03/11 15:43:29;;;;;;;6.97;2.72;;;;;;;;;;6258839;28;20053;-77
2023/03/11 15:46:30;;;;;;;2.10;2.00;;;;;;;;;;6252568;28;20104;-78
2023/03/11 15:49:30;;;;;;;0.30;0.30;;;;;;;;;;6238273;28;20482;-78
2023/03/11 15:52:31;;;;;;;0.93;0.93;;;;;;;;;;6243777;28;20024;-78
2023/03/11 15:55:31;;;;;;;0.65;0.65;;;;;;;;;;6253293;28;20021;-77
2023/03/11 15:58:31;;;;;;;0.30;0.30;;;;;;;;;;6253729;28;20053;-78
2023/03/11 16:01:31;;;;;;;0.70;0.70;;;;;;;;;;6241470;28;20561;-78
2023/03/11 16:04:31;;;;;;;0.27;0.27;;;;;;;;;;6256702;28;20525;-78
2023/03/11 16:07:32;;;;;;;5.33;1.80;;;;;;;;;;6256978;28;20030;-78
2023/03/11 16:10:32;;;;;;;1.50;1.50;;;;;;;;;;6263082;28;20079;-78
2023/03/11 16:13:32;;;;;;;3.50;3.30;;;;;;;;;;6236630;28;20037;-78
2023/03/11 16:16:32;;;;;;;0.97;0.97;;;;;;;;;;6259789;28;20527;-78
2023/03/11 16:19:32;;;;;;;0.40;0.40;;;;;;;;;;6242996;28;20005;-78
2023/03/11 16:22:35;;;;;;;5.07;4.68;;;;;;;;;;6261865;28;20017;-78
2023/03/11 16:25:37;;;;;;;0.40;0.40;;;;;;;;;;6257655;28;20019;-78
2023/03/11 16:28:37;;;;;;;1.80;1.70;;;;;;;;;;6257592;28;20494;-78
2023/03/11 16:31:38;;;;;;;1.23;1.20;;;;;;;;;;6243051;28;20021;-78
2023/03/11 16:34:38;;;;;;;2.47;2.08;;;;;;;;;;6254101;28;20021;-78
2023/03/11 16:37:41;;;;;;;2.23;2.03;;;;;;;;;;6255188;28;20584;-78
2023/03/11 16:40:41;;;;;;;19.85;18.35;;;;;;;;;;6254068;28;20017;-78
2023/03/11 16:43:41;;;;;;;2.67;2.57;;;;;;;;;;6262447;28;20506;-78
2023/03/11 16:46:43;;;;;;;5.50;3.37;;;;;;;;;;6256014;28;20032;-78
2023/03/11 16:49:43;;;;;;;6.07;5.63;;;;;;;;;;6254983;28;20379;-79
2023/03/11 16:52:43;;;;;;;1.10;1.10;;;;;;;;;;6242424;28;20045;-78
2023/03/11 16:55:44;;;;;;;1.02;1.02;;;;;;;;;;6244469;28;20028;-78
2023/03/11 16:58:48;;;;;;;1.90;1.85;;;;;;;;;;6218097;28;20549;-79
2023/03/11 17:01:48;;;;;;;1.42;1.42;;;;;;;;;;6249291;28;20020;-78
2023/03/11 17:04:48;;;;;;;2.00;1.90;;;;;;;;;;6257656;28;20036;-78
2023/03/11 17:07:51;;;;;;;1.07;1.07;;;;;;;;;;6257497;28;20654;-78
2023/03/11 17:10:52;;;;;;;2.05;1.95;;;;;;;;;;6253780;28;20094;-78
2023/03/11 17:13:52;;;;;;;0.73;0.73;;;;;;;;;;6253442;28;20042;-78
2023/03/11 17:16:52;;;;;;;1.87;1.80;;;;;;;;;;6247047;28;20024;-76
2023/03/11 17:19:52;;;;;;;3.10;2.95;;;;;;;;;;6242611;28;20071;-78
2023/03/11 17:22:52;;;;;;;2.00;1.90;;;;;;;;;;6258388;28;20108;-77
2023/03/11 17:25:53;;;;;;;0.70;0.70;;;;;;;;;;6260144;28;20021;-78
2023/03/11 17:28:53;;;;;;;6.13;3.03;;;;;;;;;;6258483;28;20057;-79
2023/03/11 17:31:53;;;;;;;2.63;2.23;;;;;;;;;;6248858;28;20483;-78
2023/03/11 17:34:53;;;;;;;0.57;0.57;;;;;;;;;;6256160;28;20122;-78
2023/03/11 17:37:54;;;;;;;1.37;1.27;;;;;;;;;;6242079;28;20021;-78
2023/03/11 17:40:54;;;;;;;0.37;0.37;;;;;;;;;;6249163;28;20032;-78
2023/03/11 17:43:55;;;;;;;1.83;1.73;;;;;;;;;;6240771;28;20021;-77
2023/03/11 17:46:55;;;;;;;3.13;2.93;;;;;;;;;;6263041;28;20017;-78
2023/03/11 17:49:55;;;;;;;1.48;1.38;;;;;;;;;;6251918;28;20017;-77
2023/03/11 17:52:55;;;;;;;3.20;2.93;;;;;;;;;;6251834;28;20092;-77
2023/03/11 17:55:57;;;;;;;0.40;0.40;;;;;;;;;;6245103;28;20487;-77
2023/03/11 17:58:57;;;;;;;0.75;0.75;;;;;;;;;;6259027;28;20390;-77
2023/03/11 18:01:57;;;;;;;2.00;1.70;;;;;;;;;;6243342;28;20018;-77
2023/03/11 18:04:58;;;;;;;0.53;0.53;;;;;;;;;;6257580;28;20024;-77
2023/03/11 18:07:58;;;;;;;1.13;1.13;;;;;;;;;;6250444;28;20010;-76
2023/03/11 18:11:00;;;;;;;0.47;0.47;;;;;;;;;;6254748;28;20013;-77
2023/03/11 18:14:01;;;;;;;1.38;1.38;;;;;;;;;;6257819;28;20048;-76
2023/03/11 18:17:02;;;;;;;2.27;2.10;;;;;;;;;;6244165;28;20416;-76
2023/03/11 18:20:03;;;;;;;0.73;0.73;;;;;;;;;;6242362;28;20353;-77
2023/03/11 18:23:04;;;;;;;2.35;2.20;;;;;;;;;;6253429;28;20083;-77
2023/03/11 18:26:05;;;;;;;5.60;5.17;;;;;;;;;;6258151;28;20033;-76
2023/03/11 18:29:05;;;;;;;1.13;1.13;;;;;;;;;;6251690;28;20031;-76
2023/03/11 18:32:05;;;;;;;2.17;1.93;;;;;;;;;;6251726;28;20017;-75
2023/03/11 18:35:06;;;;;;;0.88;0.88;;;;;;;;;;6267195;28;20403;-77
2023/03/11 18:38:06;;;;;;;0.30;0.30;;;;;;;;;;6249839;28;20096;-77
2023/03/11 18:41:06;;;;;;;2.23;2.13;;;;;;;;;;6247462;28;20041;-77
2023/03/11 18:44:09;;;;;;;1.87;1.37;;;;;;;;;;6241959;28;20021;-78